createdAt,value
2017-07-11T00:01:44.463Z,99.90
2017-07-11T00:04:11.443Z,99.90
2017-07-11T00:06:38.415Z,99.90
2017-07-11T00:09:06.155Z,99.90
2017-07-11T00:11:33.282Z,99.90
2017-07-11T00:14:00.267Z,99.90
2017-07-11T00:16:29.014Z,99.90
2017-07-11T00:18:55.987Z,99.90
2017-07-11T00:21:22.949Z,99.90
2017-07-11T00:23:50.712Z,99.90
2017-07-11T00:26:18.435Z,99.90
2017-07-11T00:28:45.417Z,99.90
2017-07-11T00:31:13.144Z,99.90
2017-07-11T00:33:40.127Z,99.90
2017-07-11T00:36:07.851Z,99.90
2017-07-11T00:38:34.848Z,99.90
2017-07-11T00:41:02.579Z,99.90
2017-07-11T00:43:29.597Z,99.90
2017-07-11T00:45:56.564Z,99.90
2017-07-11T00:48:23.543Z,99.90
2017-07-11T00:50:51.273Z,99.90
2017-07-11T00:53:18.258Z,99.90
2017-07-11T00:55:45.988Z,99.90
2017-07-11T00:58:12.971Z,99.90
2017-07-11T01:00:39.955Z,99.90
2017-07-11T01:03:06.933Z,99.90
2017-07-11T01:05:33.892Z,99.90
2017-07-11T01:08:01.655Z,99.90
2017-07-11T01:10:29.377Z,99.90
2017-07-11T01:12:56.331Z,99.90
2017-07-11T01:15:23.316Z,99.90
2017-07-11T01:17:51.043Z,99.90
2017-07-11T01:20:18.024Z,99.90
2017-07-11T01:22:45.752Z,99.90
2017-07-11T01:25:12.731Z,99.90
2017-07-11T01:27:40.456Z,99.90
2017-07-11T01:30:08.439Z,99.90
2017-07-11T01:32:35.441Z,99.90
2017-07-11T01:35:02.403Z,99.90
2017-07-11T01:37:29.363Z,99.90
2017-07-11T01:39:56.540Z,99.90
2017-07-11T01:42:23.567Z,99.90
2017-07-11T01:44:50.547Z,99.90
2017-07-11T01:47:18.294Z,99.90
2017-07-11T01:49:45.299Z,99.90
2017-07-11T01:52:12.263Z,99.90
2017-07-11T01:54:39.247Z,99.90
2017-07-11T01:57:06.968Z,99.90
2017-07-11T01:59:33.959Z,99.90
2017-07-11T02:02:01.707Z,99.90
2017-07-11T02:04:29.451Z,99.90
2017-07-11T02:06:56.423Z,99.90
2017-07-11T02:09:24.387Z,99.90
2017-07-11T02:11:52.135Z,99.90
2017-07-11T02:14:19.140Z,99.90
2017-07-11T02:16:46.318Z,99.90
2017-07-11T02:19:14.281Z,99.90
2017-07-11T02:21:41.247Z,99.90
2017-07-11T02:24:10.015Z,99.90
2017-07-11T02:26:36.991Z,99.90
2017-07-11T02:29:04.009Z,99.90
2017-07-11T02:31:31.885Z,99.90
2017-07-11T02:33:59.653Z,99.90
2017-07-11T02:36:28.396Z,99.90
2017-07-11T02:38:55.382Z,99.90
2017-07-11T02:41:23.115Z,99.90
2017-07-11T02:43:50.109Z,99.90
2017-07-11T02:46:17.071Z,99.90
2017-07-11T02:48:44.080Z,99.90
2017-07-11T02:51:11.296Z,99.90
2017-07-11T02:53:38.275Z,99.90
2017-07-11T02:56:06.015Z,99.90
2017-07-11T02:58:33.000Z,99.90
2017-07-11T03:01:00.009Z,99.90
2017-07-11T03:03:27.991Z,99.90
2017-07-11T03:05:54.979Z,99.90
2017-07-11T03:08:21.946Z,99.90
2017-07-11T03:10:48.936Z,99.90
2017-07-11T03:13:16.838Z,99.90
2017-07-11T03:15:44.744Z,99.90
2017-07-11T03:18:12.474Z,99.90
2017-07-11T03:20:39.489Z,99.90
2017-07-11T03:23:06.459Z,99.90
2017-07-11T03:25:33.445Z,99.90
2017-07-11T03:28:00.460Z,99.90
2017-07-11T03:30:27.445Z,99.90
2017-07-11T03:32:54.432Z,99.90
2017-07-11T03:35:21.448Z,99.90
2017-07-11T03:37:48.439Z,99.90
2017-07-11T03:40:15.424Z,99.90
2017-07-11T03:42:43.152Z,99.90
2017-07-11T03:45:11.141Z,99.90
2017-07-11T03:47:38.875Z,99.90
2017-07-11T03:50:05.911Z,99.90
2017-07-11T03:52:32.877Z,99.90
2017-07-11T03:54:59.876Z,99.90
2017-07-11T03:57:26.847Z,99.90
2017-07-11T03:59:53.843Z,99.90
2017-07-11T04:02:23.528Z,99.90
2017-07-11T04:04:50.525Z,99.90
2017-07-11T04:07:17.485Z,99.90
2017-07-11T04:09:45.488Z,99.90
2017-07-11T04:12:12.457Z,99.90
2017-07-11T04:14:40.197Z,99.90
2017-07-11T04:17:07.148Z,99.90
2017-07-11T04:19:34.135Z,99.90
2017-07-11T04:22:01.106Z,99.90
2017-07-11T04:24:28.112Z,99.90
2017-07-11T04:26:55.069Z,99.90
2017-07-11T04:29:22.034Z,99.90
2017-07-11T04:31:49.003Z,99.90
2017-07-11T04:34:16.966Z,99.90
2017-07-11T04:36:43.957Z,99.90
2017-07-11T04:39:12.710Z,99.90
2017-07-11T04:41:39.701Z,99.90
2017-07-11T04:44:07.617Z,99.90
2017-07-11T04:46:34.604Z,99.90
2017-07-11T04:49:02.329Z,99.90
2017-07-11T04:51:29.317Z,99.90
2017-07-11T04:53:56.292Z,99.90
2017-07-11T04:56:23.283Z,99.90
2017-07-11T04:58:51.225Z,99.90
2017-07-11T05:01:18.212Z,99.90
2017-07-11T05:03:45.176Z,99.90
2017-07-11T05:06:12.164Z,99.90
2017-07-11T05:08:39.124Z,99.90
2017-07-11T05:11:06.111Z,99.90
2017-07-11T05:13:33.068Z,99.90
2017-07-11T05:16:00.071Z,99.90
2017-07-11T05:18:28.009Z,99.90
2017-07-11T05:20:55.982Z,99.90
2017-07-11T05:23:22.987Z,99.90
2017-07-11T05:25:49.949Z,99.90
2017-07-11T05:28:16.932Z,99.90
2017-07-11T05:30:43.902Z,99.90
2017-07-11T05:33:10.917Z,99.90
2017-07-11T05:35:37.884Z,99.90
2017-07-11T05:38:06.557Z,99.90
2017-07-11T05:40:33.515Z,99.90
2017-07-11T05:43:01.265Z,99.90
2017-07-11T05:45:29.225Z,99.90
2017-07-11T05:47:57.221Z,99.90
2017-07-11T05:50:24.204Z,99.90
2017-07-11T05:52:52.173Z,99.90
2017-07-11T05:55:19.907Z,99.90
2017-07-11T05:57:48.917Z,99.90
2017-07-11T06:00:15.881Z,99.90
2017-07-11T06:02:42.868Z,99.90
2017-07-11T06:05:09.826Z,99.90
2017-07-11T06:07:36.825Z,99.90
2017-07-11T06:10:05.796Z,99.90
2017-07-11T06:12:32.761Z,99.90
2017-07-11T06:15:06.340Z,99.90
2017-07-11T06:17:33.315Z,99.90
2017-07-11T06:20:04.417Z,99.90
2017-07-11T06:22:31.395Z,99.90
2017-07-11T06:24:58.385Z,99.90
2017-07-11T06:27:26.394Z,99.90
2017-07-11T06:29:53.652Z,99.90
2017-07-11T06:32:20.621Z,99.90
2017-07-11T06:34:48.429Z,99.90
2017-07-11T06:37:15.412Z,99.90
2017-07-11T06:39:43.364Z,99.90
2017-07-11T06:42:11.355Z,99.90
2017-07-11T06:44:39.306Z,99.90
2017-07-11T06:47:06.331Z,99.90
2017-07-11T06:49:33.298Z,99.90
2017-07-11T06:52:00.276Z,99.90
2017-07-11T06:54:27.267Z,99.90
2017-07-11T06:56:55.256Z,99.90
2017-07-11T06:59:23.260Z,99.90
2017-07-11T07:01:50.991Z,99.90
2017-07-11T07:04:17.981Z,99.90
2017-07-11T07:06:44.952Z,99.90
2017-07-11T07:09:11.944Z,99.90
2017-07-11T07:11:38.916Z,99.90
2017-07-11T07:14:06.908Z,99.90
2017-07-11T07:16:33.869Z,99.90
2017-07-11T07:19:02.883Z,99.90
2017-07-11T07:21:29.857Z,99.90
2017-07-11T07:23:56.840Z,99.90
2017-07-11T07:26:23.809Z,99.90
2017-07-11T07:28:50.792Z,99.90
2017-07-11T07:31:17.777Z,99.90
2017-07-11T07:33:45.737Z,99.90
2017-07-11T07:36:12.696Z,99.90
2017-07-11T07:38:40.637Z,99.90
2017-07-11T07:41:08.371Z,99.90
2017-07-11T07:43:35.377Z,99.90
2017-07-11T07:46:02.353Z,99.90
2017-07-11T07:48:29.357Z,99.90
2017-07-11T07:50:57.290Z,99.90
2017-07-11T07:53:25.071Z,99.90
2017-07-11T07:55:52.801Z,99.90
2017-07-11T07:58:21.813Z,99.90
2017-07-11T08:00:49.768Z,99.90
2017-07-11T08:03:16.787Z,99.90
2017-07-11T08:05:45.675Z,99.90
2017-07-11T08:08:12.669Z,99.90
2017-07-11T08:10:40.412Z,99.90
2017-07-11T08:13:08.396Z,99.90
2017-07-11T08:15:36.277Z,99.90
2017-07-11T08:18:05.079Z,99.90
2017-07-11T08:20:32.091Z,99.90
2017-07-11T08:22:59.060Z,99.90
2017-07-11T08:25:28.124Z,99.90
2017-07-11T08:27:56.097Z,99.90
2017-07-11T08:30:23.064Z,99.90
2017-07-11T08:32:50.052Z,99.90
2017-07-11T08:35:17.813Z,99.90
2017-07-11T08:37:45.552Z,99.90
2017-07-11T08:40:12.540Z,99.90
2017-07-11T08:42:40.512Z,99.90
2017-07-11T08:45:07.492Z,99.90
2017-07-11T08:47:36.374Z,99.90
2017-07-11T08:50:03.452Z,99.90
2017-07-11T08:52:30.420Z,99.90
2017-07-11T08:54:57.473Z,99.90
2017-07-11T08:57:25.381Z,99.90
2017-07-11T08:59:52.369Z,99.90
2017-07-11T09:02:20.293Z,99.90
2017-07-11T09:04:47.282Z,99.90
2017-07-11T09:07:14.255Z,99.90
2017-07-11T09:09:41.246Z,99.90
2017-07-11T09:12:08.214Z,99.90
2017-07-11T09:14:35.196Z,99.90
2017-07-11T09:17:04.176Z,99.90
2017-07-11T09:19:31.202Z,99.90
2017-07-11T09:21:58.930Z,99.90
2017-07-11T09:24:25.937Z,99.90
2017-07-11T09:26:52.916Z,99.90
2017-07-11T09:29:19.937Z,99.90
2017-07-11T09:31:51.349Z,99.90
2017-07-11T09:34:18.356Z,99.90
2017-07-11T09:36:45.341Z,99.90
2017-07-11T09:39:13.305Z,99.90
2017-07-11T09:41:40.297Z,99.90
2017-07-11T09:44:07.266Z,99.90
2017-07-11T09:46:34.267Z,99.90
2017-07-11T09:49:02.292Z,99.90
2017-07-11T09:51:29.265Z,99.90
2017-07-11T09:53:56.237Z,99.90
2017-07-11T09:56:24.001Z,99.90
2017-07-11T09:58:51.732Z,98.00
2017-07-11T10:01:18.721Z,97.70
2017-07-11T10:03:46.683Z,97.90
2017-07-11T10:06:13.672Z,98.40
2017-07-11T10:08:40.669Z,97.10
2017-07-11T10:11:07.675Z,98.20
2017-07-11T10:13:34.638Z,96.90
2017-07-11T10:16:02.647Z,95.80
2017-07-11T10:18:29.616Z,96.20
2017-07-11T10:20:57.583Z,95.50
2017-07-11T10:23:25.311Z,93.60
2017-07-11T10:25:52.313Z,93.40
2017-07-11T10:28:19.281Z,92.80
2017-07-11T10:30:47.314Z,92.80
2017-07-11T10:33:16.072Z,94.80
2017-07-11T10:35:44.033Z,94.50
2017-07-11T10:38:11.040Z,94.40
2017-07-11T10:40:38.941Z,93.90
2017-07-11T10:43:05.933Z,92.40
2017-07-11T10:45:32.896Z,92.00
2017-07-11T10:48:00.836Z,91.60
2017-07-11T10:50:28.559Z,92.40
2017-07-11T10:52:55.550Z,92.20
2017-07-11T10:55:22.519Z,91.70
2017-07-11T10:57:49.509Z,91.30
2017-07-11T11:00:17.325Z,88.40
2017-07-11T11:02:46.348Z,88.00
2017-07-11T11:05:15.121Z,88.60
2017-07-11T11:07:42.112Z,88.30
2017-07-11T11:10:12.880Z,88.10
2017-07-11T11:12:39.864Z,87.60
2017-07-11T11:15:06.820Z,99.90
2017-07-11T11:17:33.799Z,99.90
2017-07-11T11:20:02.255Z,99.90
2017-07-11T11:22:29.289Z,99.90
2017-07-11T11:24:56.260Z,99.90
2017-07-11T11:27:23.512Z,99.90
2017-07-11T11:29:50.701Z,99.90
2017-07-11T11:32:17.673Z,99.90
2017-07-11T11:34:46.609Z,99.90
2017-07-11T11:37:14.532Z,99.90
2017-07-11T11:39:41.528Z,99.90
2017-07-11T11:42:09.521Z,99.90
2017-07-11T11:44:36.480Z,99.90
2017-07-11T11:47:04.223Z,99.90
2017-07-11T11:49:32.165Z,99.90
2017-07-11T11:51:59.149Z,99.90
2017-07-11T11:54:26.117Z,99.90
2017-07-11T11:56:55.065Z,99.90
2017-07-11T11:59:23.040Z,99.90
2017-07-11T12:01:50.057Z,99.90
2017-07-11T12:04:17.041Z,99.90
2017-07-11T12:06:44.022Z,99.90
2017-07-11T12:09:10.988Z,99.90
2017-07-11T12:11:37.984Z,99.90
2017-07-11T12:14:04.940Z,99.90
2017-07-11T12:16:31.935Z,99.90
2017-07-11T12:19:00.704Z,99.90
2017-07-11T12:21:27.700Z,99.90
2017-07-11T12:23:54.667Z,99.90
2017-07-11T12:26:22.228Z,99.90
2017-07-11T12:28:49.190Z,99.90
2017-07-11T12:31:16.170Z,99.90
2017-07-11T12:33:44.099Z,99.90
2017-07-11T12:36:11.991Z,99.90
2017-07-11T12:38:39.758Z,99.90
2017-07-11T12:41:07.488Z,99.90
2017-07-11T12:43:34.487Z,99.90
2017-07-11T12:46:01.464Z,99.90
2017-07-11T12:48:28.457Z,99.90
2017-07-11T12:50:55.427Z,99.90
2017-07-11T12:53:22.413Z,99.90
2017-07-11T12:55:50.369Z,99.90
2017-07-11T12:58:17.356Z,99.90
2017-07-11T13:00:46.097Z,98.70
2017-07-11T13:03:13.360Z,98.50
2017-07-11T13:05:40.321Z,95.00
2017-07-11T13:08:07.308Z,92.70
2017-07-11T13:10:34.268Z,93.20
2017-07-11T13:13:01.651Z,92.70
2017-07-11T13:15:28.678Z,91.10
2017-07-11T13:17:55.640Z,90.10
2017-07-11T13:20:22.633Z,88.30
2017-07-11T13:22:50.538Z,89.00
2017-07-11T13:25:17.532Z,89.80
2017-07-11T13:27:44.497Z,89.90
2017-07-11T13:30:11.503Z,88.40
2017-07-11T13:32:39.379Z,89.30
2017-07-11T13:35:06.388Z,88.90
2017-07-11T13:37:35.258Z,90.40
2017-07-11T13:40:02.244Z,90.40
2017-07-11T13:42:29.195Z,90.10
2017-07-11T13:44:56.190Z,89.00
2017-07-11T13:47:23.172Z,88.60
2017-07-11T13:49:50.157Z,89.50
2017-07-11T13:52:17.120Z,90.20
2017-07-11T13:54:44.873Z,90.30
2017-07-11T13:57:12.592Z,86.00
2017-07-11T13:59:39.577Z,85.50
2017-07-11T14:02:06.545Z,70.20
2017-07-11T14:04:33.527Z,72.20
2017-07-11T14:07:01.391Z,75.00
2017-07-11T14:09:28.376Z,76.00
2017-07-11T14:11:55.327Z,77.50
2017-07-11T14:14:22.302Z,77.50
2017-07-11T14:16:49.284Z,77.30
2017-07-11T14:19:16.286Z,77.90
2017-07-11T14:21:43.249Z,76.80
2017-07-11T14:24:10.205Z,73.40
2017-07-11T14:26:37.210Z,73.50
2017-07-11T14:29:05.168Z,74.40
2017-07-11T14:31:32.904Z,84.40
2017-07-11T14:34:00.635Z,84.50
2017-07-11T14:36:27.620Z,84.10
2017-07-11T14:38:54.645Z,84.00
2017-07-11T14:41:21.625Z,83.60
2017-07-11T14:43:49.572Z,78.60
2017-07-11T14:46:16.536Z,78.90
2017-07-11T14:48:43.497Z,82.80
2017-07-11T14:51:10.488Z,77.80
2017-07-11T14:53:38.473Z,78.60
2017-07-11T14:56:07.353Z,81.00
2017-07-11T14:58:35.356Z,80.00
2017-07-11T15:01:02.379Z,81.70
2017-07-11T15:03:30.128Z,82.80
2017-07-11T15:05:57.143Z,82.10
2017-07-11T15:08:24.110Z,83.10
2017-07-11T15:10:51.096Z,85.00
2017-07-11T15:13:18.052Z,85.50
2017-07-11T15:15:45.057Z,85.30
2017-07-11T15:18:12.063Z,81.00
2017-07-11T15:20:39.980Z,73.50
2017-07-11T15:28:05.848Z,77.50
2017-07-11T15:35:30.028Z,69.30
2017-07-11T15:37:57.033Z,63.80
2017-07-11T15:40:24.213Z,60.50
2017-07-11T15:42:51.175Z,60.60
2017-07-11T15:45:18.161Z,61.80
2017-07-11T15:47:46.968Z,68.20
2017-07-11T15:50:14.872Z,67.30
2017-07-11T15:52:41.907Z,63.00
2017-07-11T15:55:08.900Z,65.20
2017-07-11T15:57:36.637Z,68.90
2017-07-11T16:00:04.687Z,68.30
2017-07-11T16:02:32.672Z,69.00
2017-07-11T16:04:59.679Z,69.00
2017-07-11T16:07:26.647Z,69.30
2017-07-11T16:09:53.620Z,69.60
2017-07-11T16:12:20.644Z,69.60
2017-07-11T16:14:47.704Z,70.00
2017-07-11T16:17:15.700Z,69.20
2017-07-11T16:19:42.704Z,66.90
2017-07-11T16:22:09.697Z,65.90
2017-07-11T16:24:37.420Z,62.30
2017-07-11T16:27:05.407Z,61.70
2017-07-11T16:29:32.424Z,65.50
2017-07-11T16:31:59.418Z,67.60
2017-07-11T16:34:26.428Z,71.60
2017-07-11T16:36:56.881Z,68.00
2017-07-11T16:39:23.934Z,65.70
2017-07-11T16:41:51.348Z,66.20
2017-07-11T16:44:18.310Z,65.40
2017-07-11T16:46:45.270Z,65.60
2017-07-11T16:49:12.277Z,64.80
2017-07-11T16:51:39.260Z,65.10
2017-07-11T16:54:06.240Z,66.50
2017-07-11T16:56:34.225Z,67.50
2017-07-11T16:59:02.135Z,69.20
2017-07-11T17:01:29.100Z,69.70
2017-07-11T17:03:56.076Z,70.50
2017-07-11T17:06:23.034Z,71.80
2017-07-11T17:08:50.952Z,73.10
2017-07-11T17:11:19.296Z,73.30
2017-07-11T17:13:46.277Z,74.00
2017-07-11T17:16:14.188Z,72.40
2017-07-11T17:18:43.101Z,73.50
2017-07-11T17:21:10.051Z,74.50
2017-07-11T17:23:37.051Z,75.30
2017-07-11T17:26:04.015Z,74.50
2017-07-11T17:28:31.798Z,75.10
2017-07-11T17:30:59.549Z,75.20
2017-07-11T17:33:27.277Z,76.90
2017-07-11T17:35:54.258Z,76.20
2017-07-11T17:38:21.984Z,78.10
2017-07-11T17:40:48.973Z,77.00
2017-07-11T17:43:16.697Z,77.10
2017-07-11T17:45:43.678Z,75.90
2017-07-11T17:48:11.403Z,75.40
2017-07-11T17:50:38.405Z,73.90
2017-07-11T17:53:05.365Z,73.70
2017-07-11T17:55:32.349Z,74.10
2017-07-11T17:57:59.308Z,74.40
2017-07-11T18:00:26.305Z,73.90
2017-07-11T18:02:53.351Z,72.90
2017-07-11T18:05:20.308Z,72.20
2017-07-11T18:07:48.052Z,73.10
2017-07-11T18:10:15.033Z,72.40
2017-07-11T18:12:42.104Z,71.30
2017-07-11T18:15:09.082Z,71.80
2017-07-11T18:17:36.044Z,72.50
2017-07-11T18:20:02.995Z,72.60
2017-07-11T18:22:30.736Z,74.10
2017-07-11T18:24:57.755Z,73.20
2017-07-11T18:27:24.788Z,73.20
2017-07-11T18:29:51.785Z,73.80
2017-07-11T18:32:18.769Z,74.80
2017-07-11T18:34:45.725Z,74.90
2017-07-11T18:37:12.713Z,75.40
2017-07-11T18:39:39.672Z,76.10
2017-07-11T18:42:06.809Z,76.60
2017-07-11T18:44:33.772Z,77.70
2017-07-11T18:47:00.756Z,79.20
2017-07-11T18:49:27.720Z,79.80
2017-07-11T18:51:55.484Z,79.30
2017-07-11T18:54:23.233Z,79.00
2017-07-11T18:56:50.192Z,78.30
2017-07-11T18:59:17.941Z,79.40
2017-07-11T19:01:44.920Z,78.40
2017-07-11T19:04:11.876Z,79.00
2017-07-11T19:06:38.836Z,79.80
2017-07-11T19:09:05.808Z,80.10
2017-07-11T19:11:32.769Z,80.50
2017-07-11T19:13:59.756Z,80.80
2017-07-11T19:16:26.712Z,81.50
2017-07-11T19:18:53.699Z,82.20
2017-07-11T19:21:20.661Z,83.00
2017-07-11T19:23:48.435Z,84.90
2017-07-11T19:26:16.208Z,85.70
2017-07-11T19:28:43.334Z,85.10
2017-07-11T19:31:11.090Z,87.70
2017-07-11T19:33:38.051Z,87.10
2017-07-11T19:36:05.802Z,90.50
2017-07-11T19:38:32.760Z,90.20
2017-07-11T19:41:00.507Z,91.70
2017-07-11T19:43:28.475Z,91.40
2017-07-11T19:45:55.473Z,92.60
2017-07-11T19:48:22.431Z,93.70
2017-07-11T19:50:49.425Z,94.90
2017-07-11T19:53:17.153Z,97.70
2017-07-11T19:55:44.148Z,97.40
2017-07-11T19:58:11.876Z,98.90
2017-07-11T20:00:39.869Z,98.70
2017-07-11T20:03:07.596Z,99.90
2017-07-11T20:05:34.576Z,99.90
2017-07-11T20:08:02.304Z,99.90
2017-07-11T20:10:29.331Z,99.90
2017-07-11T20:12:56.368Z,99.90
2017-07-11T20:15:23.368Z,99.90
2017-07-11T20:17:50.342Z,99.90
2017-07-11T20:20:17.358Z,99.90
2017-07-11T20:22:44.350Z,99.90
2017-07-11T20:25:11.369Z,99.90
2017-07-11T20:27:39.138Z,99.90
2017-07-11T20:30:06.894Z,99.90
2017-07-11T20:32:33.877Z,99.90
2017-07-11T20:35:00.903Z,99.90
2017-07-11T20:37:27.935Z,99.90
2017-07-11T20:39:54.907Z,99.90
2017-07-11T20:42:21.901Z,99.90
2017-07-11T20:44:48.879Z,99.90
2017-07-11T20:47:16.647Z,99.90
2017-07-11T20:49:44.364Z,99.90
2017-07-11T20:52:11.346Z,99.90
2017-07-11T20:54:39.072Z,99.90
2017-07-11T20:57:06.030Z,99.90
2017-07-11T20:59:33.005Z,99.90
2017-07-11T21:02:00.749Z,99.90
2017-07-11T21:04:27.745Z,99.90
2017-07-11T21:06:54.713Z,99.90
2017-07-11T21:09:21.706Z,99.90
2017-07-11T21:11:49.450Z,99.90
2017-07-11T21:14:16.446Z,99.90
2017-07-11T21:16:43.422Z,99.90
2017-07-11T21:19:11.335Z,99.90
2017-07-11T21:21:38.315Z,99.90
2017-07-11T21:24:05.340Z,99.90
2017-07-11T21:26:32.310Z,99.90
2017-07-11T21:28:59.275Z,99.90
2017-07-11T21:31:26.326Z,99.90
2017-07-11T21:33:54.290Z,99.90
2017-07-11T21:36:21.291Z,99.90
2017-07-11T21:38:48.271Z,99.90
2017-07-11T21:41:15.296Z,99.90
2017-07-11T21:43:42.353Z,99.90
2017-07-11T21:46:09.346Z,99.90
2017-07-11T21:48:37.081Z,99.90
2017-07-11T21:51:04.071Z,99.90
2017-07-11T21:53:31.042Z,99.90
2017-07-11T21:55:58.055Z,99.90
2017-07-11T21:58:25.790Z,99.90
2017-07-11T22:00:52.785Z,99.90
2017-07-11T22:03:19.753Z,99.90
2017-07-11T22:05:46.741Z,99.90
2017-07-11T22:08:15.417Z,99.90
2017-07-11T22:10:42.445Z,99.90
2017-07-11T22:13:09.458Z,99.90
2017-07-11T22:15:36.427Z,99.90
2017-07-11T22:18:03.426Z,99.90
2017-07-11T22:20:31.199Z,99.90
2017-07-11T22:22:58.166Z,99.90
2017-07-11T22:25:25.158Z,99.90
2017-07-11T22:27:52.126Z,99.90
2017-07-11T22:30:19.124Z,99.90
2017-07-11T22:32:46.100Z,99.90
2017-07-11T22:35:13.095Z,99.90
2017-07-11T22:37:40.063Z,99.90
2017-07-11T22:40:07.071Z,99.90
2017-07-11T22:42:34.045Z,99.90
2017-07-11T22:45:01.014Z,99.90
2017-07-11T22:47:28.771Z,99.90
2017-07-11T22:49:56.550Z,99.90
2017-07-11T22:52:24.290Z,99.90
2017-07-11T22:54:51.296Z,99.90
2017-07-11T22:57:18.287Z,99.90
2017-07-11T22:59:45.311Z,99.90
2017-07-11T23:02:12.282Z,99.90
2017-07-11T23:04:39.254Z,99.90
2017-07-11T23:07:06.250Z,99.90
2017-07-11T23:09:33.245Z,99.90
2017-07-11T23:12:00.215Z,99.90
2017-07-11T23:14:29.133Z,99.90
2017-07-11T23:16:56.120Z,99.90
2017-07-11T23:19:24.870Z,99.90
2017-07-11T23:21:51.863Z,99.90
2017-07-11T23:24:18.839Z,99.90
2017-07-11T23:26:45.854Z,99.90
2017-07-11T23:29:12.827Z,99.90
2017-07-11T23:31:39.798Z,99.90
2017-07-11T23:34:06.789Z,99.90
2017-07-11T23:36:33.782Z,99.90
2017-07-11T23:39:00.759Z,99.90
2017-07-11T23:41:28.527Z,99.90
2017-07-11T23:43:56.266Z,99.90
2017-07-11T23:46:23.266Z,99.90
2017-07-11T23:48:50.234Z,99.90
2017-07-11T23:51:17.238Z,99.90
2017-07-11T23:53:44.969Z,99.90
2017-07-11T23:56:11.967Z,99.90
2017-07-11T23:58:38.958Z,99.90
